Time;durP1;ratioP1;P1;durP2;ratioP2;P2;SDS_P1;SDS_P2;PMS_P1;PMS_P2;Temp;Humidity;BMP_temperature;BMP_pressure;BME280_temperature;BME280_humidity;BME280_pressure;Samples;Min_cycle;Max_cycle;Signal;HPM_P1;HPM_P2
2021/12/16 00:02:19;;;;;;;1.13;0.80;;;;;;;1.46;100.00;100003.88;5038491;28;20562;-72
2021/12/16 00:09:54;;;;;;;1.42;1.15;;;;;;;1.39;100.00;99992.38;5048206;28;20191;-72
2021/12/16 00:31:46;;;;;;;3.40;0.88;;;;;;;1.17;100.00;100002.13;5042719;28;20060;-72
2021/12/16 00:34:13;;;;;;;3.30;0.90;;;;;;;1.15;100.00;100002.38;5038292;28;20036;-73
2021/12/16 00:36:40;;;;;;;2.13;0.70;;;;;;;1.11;100.00;100006.59;5067947;28;20044;-73
2021/12/16 00:39:16;;;;;;;1.00;0.70;;;;;;;1.07;100.00;100002.75;5058415;28;20147;-72
2021/12/16 00:41:44;;;;;;;2.33;0.80;;;;;;;1.04;100.00;99997.81;5065914;28;20036;-72
2021/12/16 00:44:37;;;;;;;1.50;0.60;;;;;;;1.04;100.00;100000.50;5042540;28;20515;-71
2021/12/16 00:49:44;;;;;;;1.52;0.85;;;;;;;1.03;100.00;99987.22;5056905;28;20065;-72
2021/12/16 00:55:07;;;;;;;1.90;1.33;;;;;;;1.00;100.00;100003.91;5027586;28;20051;-72
2021/12/16 00:57:33;;;;;;;1.33;0.88;;;;;;;0.99;100.00;99997.66;5029255;28;20038;-72
2021/12/16 01:00:03;;;;;;;0.70;0.70;;;;;;;0.98;100.00;100000.59;5058147;28;20029;-72
2021/12/16 01:50:01;;;;;;;2.70;1.00;;;;;;;0.81;100.00;99974.28;5047006;28;20045;-72
2021/12/16 01:55:39;;;;;;;1.52;1.15;;;;;;;0.82;100.00;99975.09;5045616;28;19925;-73
2021/12/16 01:58:16;;;;;;;1.92;1.20;;;;;;;0.82;100.00;99967.00;5057942;28;20040;-73
2021/12/16 02:01:11;;;;;;;1.67;0.90;;;;;;;0.82;100.00;99958.91;5029956;28;20064;-73
2021/12/16 02:03:48;;;;;;;1.63;1.23;;;;;;;0.81;100.00;99973.47;5042310;28;20581;-72
2021/12/16 02:08:46;;;;;;;2.85;1.45;;;;;;;0.79;100.00;99960.19;5043968;28;20525;-72
2021/12/16 02:11:37;;;;;;;3.55;1.20;;;;;;;0.77;100.00;99965.00;5053387;28;20079;-72
2021/12/16 02:35:58;;;;;;;1.38;1.10;;;;;;;0.59;100.00;99957.00;5037174;28;20048;-72
2021/12/16 02:38:27;;;;;;;1.33;1.00;;;;;;;0.57;100.00;99959.13;5046815;28;20099;-72
2021/12/16 02:40:55;;;;;;;1.50;1.10;;;;;;;0.55;100.00;99951.25;5051133;28;20133;-72
2021/12/16 02:43:49;;;;;;;1.17;1.08;;;;;;;0.52;100.00;99954.44;5050191;28;20040;-72
2021/12/16 02:48:42;;;;;;;1.30;1.20;;;;;;;0.53;100.00;99956.06;5051651;28;20389;-72
2021/12/16 02:51:09;;;;;;;3.25;1.50;;;;;;;0.51;100.00;99949.22;5055670;28;20703;-72
2021/12/16 02:53:38;;;;;;;2.53;1.20;;;;;;;0.51;100.00;99954.63;5055206;28;20044;-72
2021/12/16 02:56:04;;;;;;;1.20;1.10;;;;;;;0.51;100.00;99949.22;5050140;28;20048;-73
2021/12/16 02:58:31;;;;;;;2.55;1.40;;;;;;;0.51;100.00;99950.06;5058379;28;20119;-72
2021/12/16 03:01:02;;;;;;;3.88;1.30;;;;;;;0.51;100.00;99941.97;5032983;28;20569;-73
2021/12/16 03:03:29;;;;;;;5.30;1.75;;;;;;;0.51;100.00;99941.13;5043603;28;20040;-73
2021/12/16 03:05:55;;;;;;;3.35;1.40;;;;;;;0.51;100.00;99930.34;5041009;28;20037;-73
2021/12/16 03:08:21;;;;;;;2.13;1.38;;;;;;;0.50;100.00;99934.09;5045072;28;20049;-72
2021/12/16 03:19:35;;;;;;;1.92;1.50;;;;;;;0.52;100.00;99927.44;5048327;28;20056;-72
2021/12/16 03:21:24;;;;;;;3.53;1.60;;;;;;;0.53;100.00;99918.28;5050710;28;20037;-72
2021/12/16 03:27:07;;;;;;;2.45;1.58;;;;;;;0.52;100.00;99916.63;5048962;28;20040;-72
2021/12/16 03:35:02;;;;;;;2.80;1.60;;;;;;;0.60;100.00;99923.56;5032534;28;20041;-73
2021/12/16 03:37:29;;;;;;;2.17;1.52;;;;;;;0.60;100.00;99923.56;5064269;28;20106;-72
2021/12/16 03:40:05;;;;;;;2.97;1.70;;;;;;;0.61;100.00;99927.91;5034967;28;20085;-72
2021/12/16 03:42:35;;;;;;;2.30;1.55;;;;;;;0.61;100.00;99919.81;5037913;28;20048;-73
2021/12/16 03:48:49;;;;;;;2.05;1.52;;;;;;;0.65;100.00;99931.78;5031137;28;20037;-72
2021/12/16 03:51:34;;;;;;;2.10;1.77;;;;;;;0.69;100.00;99921.31;5041101;28;20051;-72
2021/12/16 03:54:07;;;;;;;2.17;1.40;;;;;;;0.70;100.00;99921.13;5040868;28;20037;-73
2021/12/16 03:57:01;;;;;;;3.10;2.10;;;;;;;0.73;100.00;99917.94;5046120;28;20041;-73
2021/12/16 03:59:30;;;;;;;3.67;1.55;;;;;;;0.74;100.00;99914.19;5021459;28;20059;-72
2021/12/16 04:02:09;;;;;;;2.80;1.70;;;;;;;0.77;100.00;99913.72;5053593;28;20040;-73
2021/12/16 04:04:40;;;;;;;2.13;1.65;;;;;;;0.78;100.00;99917.22;5023810;28;20033;-72
2021/12/16 04:07:07;;;;;;;2.08;1.40;;;;;;;0.81;100.00;99922.97;5046734;28;20227;-73
2021/12/16 04:09:47;;;;;;;3.00;1.90;;;;;;;0.84;100.00;99914.41;5046664;28;20455;-73
2021/12/16 04:12:21;;;;;;;5.03;1.85;;;;;;;0.85;100.00;99916.03;5016222;28;20033;-72
2021/12/16 04:14:51;;;;;;;5.60;2.13;;;;;;;0.87;100.00;99921.22;5009462;28;20041;-72
2021/12/16 04:17:17;;;;;;;;;;;;;;;0.87;100.00;99922.06;5051943;28;20032;-72
2021/12/16 04:19:52;;;;;;;6.80;1.80;;;;;;;0.88;100.00;99921.00;5054039;28;19920;-73
2021/12/16 04:22:29;;;;;;;6.30;2.25;;;;;;;0.92;100.00;99909.72;5043527;28;20071;-72
2021/12/16 04:24:58;;;;;;;2.47;1.80;;;;;;;0.92;100.00;99915.13;5036582;28;20106;-72
2021/12/16 04:27:25;;;;;;;4.15;2.05;;;;;;;0.94;100.00;99913.00;5050007;28;20045;-72
2021/12/16 04:29:51;;;;;;;2.47;1.90;;;;;;;0.95;100.00;99912.75;5050575;28;20037;-73
2021/12/16 04:32:18;;;;;;;4.05;1.95;;;;;;;0.96;100.00;99911.69;5047251;28;20127;-72
2021/12/16 04:34:45;;;;;;;2.75;2.08;;;;;;;0.99;100.00;99907.69;5043716;28;20556;-73
2021/12/16 04:37:11;;;;;;;3.90;2.20;;;;;;;0.99;100.00;99910.41;5035270;28;20070;-72
2021/12/16 04:39:39;;;;;;;3.70;2.25;;;;;;;1.00;100.00;99899.34;5026011;28;20037;-72
2021/12/16 04:42:06;;;;;;;2.97;2.40;;;;;;;1.03;100.00;99903.47;5025847;28;20507;-71
2021/12/16 04:44:33;;;;;;;4.20;2.55;;;;;;;1.04;100.00;99910.50;5036588;28;20147;-76
2021/12/16 04:47:01;;;;;;;4.93;2.33;;;;;;;1.05;100.00;99906.78;5018787;28;20037;-72
2021/12/16 04:49:27;;;;;;;3.08;2.45;;;;;;;1.05;100.00;99904.91;5040101;28;20406;-73
2021/12/16 04:51:55;;;;;;;3.85;2.33;;;;;;;1.07;100.00;99904.66;5059338;28;20033;-73
2021/12/16 04:54:23;;;;;;;4.32;2.35;;;;;;;1.07;100.00;99897.38;5061660;28;20045;-73
2021/12/16 04:56:52;;;;;;;3.17;2.13;;;;;;;1.06;100.00;99898.44;5038821;28;20040;-73
2021/12/16 04:59:20;;;;;;;2.25;2.05;;;;;;;1.07;100.00;99891.16;5068027;28;20033;-74
2021/12/16 05:01:52;;;;;;;7.25;2.50;;;;;;;1.09;100.00;99889.84;5061208;28;20067;-73
2021/12/16 05:04:29;;;;;;;5.35;2.30;;;;;;;1.12;100.00;99888.53;5069025;28;20551;-74
2021/12/16 05:06:55;;;;;;;2.65;2.22;;;;;;;1.12;100.00;99893.94;5022798;28;20048;-72
2021/12/16 05:10:06;;;;;;;5.15;3.00;;;;;;;1.13;100.00;99899.13;5059390;28;20119;-74
2021/12/16 05:12:18;;;;;;;4.07;2.55;;;;;;;1.15;100.00;99893.47;5050437;28;20060;-74
2021/12/16 05:14:44;;;;;;;5.15;2.63;;;;;;;1.14;100.00;99900.75;5042771;28;20128;-74
2021/12/16 05:17:23;;;;;;;2.80;2.10;;;;;;;1.17;100.00;99907.56;5068347;28;20032;-74
2021/12/16 05:19:51;;;;;;;5.43;2.15;;;;;;;1.18;100.00;99903.78;5058478;28;20037;-73
2021/12/16 05:25:14;;;;;;;3.35;1.95;;;;;;;1.15;100.00;99905.09;5068400;28;20610;-74
2021/12/16 05:27:40;;;;;;;3.03;1.95;;;;;;;1.13;100.00;99904.50;5043696;28;20037;-74
2021/12/16 05:30:06;;;;;;;3.20;2.28;;;;;;;1.10;100.00;99898.78;5060299;28;20055;-74
2021/12/16 05:32:32;;;;;;;3.17;1.80;;;;;;;1.07;100.00;99885.75;5053110;28;20057;-73
2021/12/16 05:34:57;;;;;;;4.03;1.92;;;;;;;1.04;100.00;99897.84;5049434;28;20040;-74
2021/12/16 05:37:23;;;;;;;5.13;1.92;;;;;;;1.03;100.00;99892.66;5056843;28;20039;-74
2021/12/16 05:39:49;;;;;;;5.22;2.05;;;;;;;1.01;100.00;99897.47;5046758;28;20033;-74
2021/12/16 05:42:33;;;;;;;1.85;1.52;;;;;;;0.99;100.00;99895.03;5047385;28;20516;-74
2021/12/16 05:44:59;;;;;;;3.85;2.10;;;;;;;0.99;100.00;99891.50;5049615;28;20578;-73
2021/12/16 05:47:25;;;;;;;6.72;2.47;;;;;;;0.99;100.00;99888.78;5073310;28;20047;-74
2021/12/16 05:49:51;;;;;;;5.55;2.33;;;;;;;0.98;100.00;99887.97;5054700;28;20033;-74
2021/12/16 05:52:17;;;;;;;3.70;2.30;;;;;;;0.97;100.00;99878.22;5056734;28;20091;-74
2021/12/16 05:54:43;;;;;;;4.97;2.05;;;;;;;0.97;100.00;99878.22;5066439;28;20040;-74
2021/12/16 05:57:21;;;;;;;4.50;1.98;;;;;;;0.98;100.00;99881.75;5040616;28;20036;-74
2021/12/16 05:59:53;;;;;;;3.10;2.00;;;;;;;0.98;100.00;99884.44;5045909;28;20029;-74
2021/12/16 06:02:18;;;;;;;4.60;2.55;;;;;;;1.00;100.00;99874.22;5064314;28;20490;-74
2021/12/16 06:04:44;;;;;;;3.47;1.88;;;;;;;0.99;100.00;99881.50;5051167;28;20045;-74
2021/12/16 06:07:14;;;;;;;5.13;3.00;;;;;;;1.01;100.00;99865.06;5053957;28;20047;-74
2021/12/16 06:09:43;;;;;;;2.45;1.48;;;;;;;1.02;100.00;99875.63;5030191;28;20064;-75
2021/12/16 06:12:09;;;;;;;5.97;2.58;;;;;;;1.04;100.00;99872.69;5062236;28;20662;-73
2021/12/16 06:28:13;;;;;;;3.83;1.88;;;;;;;1.13;100.00;99864.00;5066540;28;20059;-73
2021/12/16 06:30:42;;;;;;;4.72;2.05;;;;;;;1.14;100.00;99851.31;5072183;28;20625;-74
2021/12/16 06:33:10;;;;;;;5.93;2.20;;;;;;;1.16;100.00;99851.88;5055402;28;20047;-74
2021/12/16 06:35:36;;;;;;;4.93;2.53;;;;;;;1.17;100.00;99848.94;5070301;28;20070;-73
2021/12/16 06:38:02;;;;;;;6.15;2.50;;;;;;;1.18;100.00;99844.34;5053366;28;20570;-74
2021/12/16 06:40:33;;;;;;;5.95;2.65;;;;;;;1.20;100.00;99842.22;5050538;28;20041;-74
2021/12/16 06:43:23;;;;;;;4.45;2.30;;;;;;;1.23;100.00;99840.94;5058856;28;20063;-74
2021/12/16 06:45:53;;;;;;;7.05;2.55;;;;;;;1.21;100.00;99827.66;5070423;28;20036;-73
2021/12/16 06:48:25;;;;;;;3.05;1.75;;;;;;;1.21;100.00;99833.06;5057662;28;20127;-74
2021/12/16 06:50:56;;;;;;;5.15;2.65;;;;;;;1.23;100.00;99824.75;5067362;28;20047;-74
2021/12/16 06:53:31;;;;;;;4.53;2.13;;;;;;;1.22;100.00;99823.91;5063834;28;20573;-74
2021/12/16 06:56:16;;;;;;;7.10;2.38;;;;;;;1.22;100.00;99812.28;5031464;28;20045;-74
2021/12/16 06:58:52;;;;;;;2.45;1.98;;;;;;;1.22;100.00;99825.81;5062572;28;20064;-74
2021/12/16 07:01:41;;;;;;;6.28;2.65;;;;;;;1.20;100.00;99821.44;5015305;28;20624;-74
2021/12/16 07:04:09;;;;;;;3.78;2.60;;;;;;;1.22;100.00;99828.50;5053256;28;20521;-74
2021/12/16 07:06:36;;;;;;;3.92;2.25;;;;;;;1.24;100.00;99834.50;5056112;28;20044;-74
2021/12/16 07:09:13;;;;;;;6.10;2.60;;;;;;;1.26;100.00;99832.38;5051738;28;20049;-74
2021/12/16 07:11:44;;;;;;;5.28;2.40;;;;;;;1.27;100.00;99840.22;5046117;28;20086;-73
2021/12/16 07:14:14;;;;;;;7.00;2.72;;;;;;;1.29;100.00;99830.00;5062846;28;20506;-73
2021/12/16 07:16:42;;;;;;;6.32;2.85;;;;;;;1.30;100.00;99822.69;5055774;28;20044;-73
2021/12/16 07:19:09;;;;;;;8.15;3.00;;;;;;;1.31;100.00;99827.03;5053716;28;20037;-73
2021/12/16 07:21:37;;;;;;;3.08;2.17;;;;;;;1.33;100.00;99830.31;5064332;28;20076;-73
2021/12/16 07:24:05;;;;;;;3.83;2.78;;;;;;;1.34;100.00;99831.97;5054712;28;20464;-73
2021/12/16 07:26:31;;;;;;;5.72;2.55;;;;;;;1.36;100.00;99829.84;5058646;28;20483;-73
2021/12/16 07:28:57;;;;;;;5.47;2.45;;;;;;;1.37;100.00;99831.47;5067979;28;20042;-73
2021/12/16 07:31:22;;;;;;;5.95;2.33;;;;;;;1.38;100.00;99823.13;5055777;28;20474;-73
2021/12/16 07:33:48;;;;;;;3.53;2.30;;;;;;;1.42;100.00;99824.31;5039072;28;20033;-73
2021/12/16 07:36:18;;;;;;;3.95;2.22;;;;;;;1.46;100.00;99827.34;5054778;28;20119;-73
2021/12/16 07:38:45;;;;;;;5.25;2.60;;;;;;;1.48;100.00;99822.50;5071116;28;20040;-73
2021/12/16 07:41:11;;;;;;;3.97;2.00;;;;;;;1.51;100.00;99830.13;5053974;28;20032;-73
2021/12/16 07:43:58;;;;;;;6.22;2.53;;;;;;;1.54;100.00;99824.25;5069712;28;20036;-73
2021/12/16 07:46:25;;;;;;;4.75;2.78;;;;;;;1.57;100.00;99829.19;5052743;28;20096;-74
2021/12/16 07:48:51;;;;;;;3.95;2.60;;;;;;;1.58;100.00;99824.59;5063448;28;20032;-74
2021/12/16 07:51:17;;;;;;;6.15;2.83;;;;;;;1.61;100.00;99827.63;5050697;28;20043;-73
2021/12/16 07:53:43;;;;;;;6.72;3.00;;;;;;;1.63;100.00;99830.91;5053476;28;20048;-73
2021/12/16 07:56:09;;;;;;;6.68;2.80;;;;;;;1.67;100.00;99831.25;5061416;28;20058;-73
2021/12/16 07:58:35;;;;;;;5.47;2.97;;;;;;;1.68;100.00;99833.69;5051842;28;20574;-73
2021/12/16 08:01:02;;;;;;;6.55;3.40;;;;;;;1.71;100.00;99824.28;5034529;28;20412;-73
2021/12/16 08:03:34;;;;;;;8.13;3.08;;;;;;;1.73;100.00;99816.75;5062406;28;20064;-73
2021/12/16 08:06:05;;;;;;;6.05;2.92;;;;;;;1.75;100.00;99820.06;5050543;28;20111;-73
2021/12/16 08:08:31;;;;;;;5.93;3.00;;;;;;;1.77;100.00;99815.22;5062398;28;20036;-73
2021/12/16 08:10:58;;;;;;;4.68;2.67;;;;;;;1.78;100.00;99819.56;5045758;28;20392;-73
2021/12/16 08:13:24;;;;;;;5.03;2.38;;;;;;;1.78;100.00;99824.97;5064006;28;20412;-73
2021/12/16 08:15:51;;;;;;;6.90;2.83;;;;;;;1.79;100.00;99819.31;5043181;28;20033;-73
2021/12/16 08:18:17;;;;;;;4.22;2.08;;;;;;;1.81;100.00;99819.06;5054470;28;20040;-73
2021/12/16 08:20:43;;;;;;;6.50;2.42;;;;;;;1.83;100.00;99818.81;5070602;28;20043;-73
2021/12/16 08:23:09;;;;;;;4.47;2.42;;;;;;;1.84;100.00;99815.88;5062306;28;20046;-73
2021/12/16 08:25:36;;;;;;;5.22;2.65;;;;;;;1.84;100.00;99815.88;5069265;28;20204;-72
2021/12/16 08:28:04;;;;;;;3.28;2.15;;;;;;;1.85;100.00;99813.97;5041921;28;20033;-74
2021/12/16 08:30:35;;;;;;;5.72;2.70;;;;;;;1.84;100.00;99807.75;5066201;28;20040;-73
2021/12/16 08:33:05;;;;;;;4.50;2.33;;;;;;;1.84;100.00;99815.88;5054488;28;20036;-73
2021/12/16 08:35:32;;;;;;;5.47;3.00;;;;;;;1.83;100.00;99810.69;5041575;28;20495;-73
2021/12/16 08:37:57;;;;;;;6.07;2.80;;;;;;;1.82;100.00;99801.78;5032648;28;20515;-73
2021/12/16 08:40:24;;;;;;;4.35;2.70;;;;;;;1.81;100.00;99805.53;5043072;28;20063;-73
2021/12/16 08:42:50;;;;;;;3.95;2.80;;;;;;;1.80;100.00;99804.72;5055676;28;20067;-74
2021/12/16 08:45:20;;;;;;;5.13;2.80;;;;;;;1.78;100.00;99801.44;5047525;28;20064;-74
2021/12/16 08:47:46;;;;;;;4.78;2.92;;;;;;;1.78;100.00;99804.16;5045593;28;20048;-74
2021/12/16 08:50:14;;;;;;;4.68;2.70;;;;;;;1.77;100.00;99804.41;5065192;28;20064;-74
2021/12/16 08:52:40;;;;;;;3.47;2.60;;;;;;;1.73;100.00;99805.91;5073986;28;20046;-74
2021/12/16 08:55:06;;;;;;;4.72;2.75;;;;;;;1.69;100.00;99808.31;5053583;28;20132;-73
2021/12/16 08:57:32;;;;;;;5.07;2.58;;;;;;;1.68;100.00;99808.53;5072467;28;20512;-73
2021/12/16 08:59:58;;;;;;;4.72;2.60;;;;;;;1.66;100.00;99808.78;5068823;28;20036;-73
2021/12/16 09:02:24;;;;;;;4.15;2.80;;;;;;;1.64;100.00;99794.69;5072479;28;20040;-73
2021/12/16 09:04:50;;;;;;;3.50;2.08;;;;;;;1.65;100.00;99798.22;5052223;28;20087;-73
2021/12/16 09:07:16;;;;;;;3.40;1.98;;;;;;;1.62;100.00;99796.00;5073572;28;20071;-73
2021/12/16 09:09:45;;;;;;;4.80;2.10;;;;;;;1.59;100.00;99796.50;5059625;28;20072;-73
2021/12/16 09:12:36;;;;;;;3.88;2.10;;;;;;;1.59;100.00;99796.50;5022805;28;20060;-73
2021/12/16 09:15:08;;;;;;;2.83;1.80;;;;;;;1.58;100.00;99784.88;5046866;28;20530;-73
2021/12/16 09:17:34;;;;;;;3.78;1.90;;;;;;;1.56;100.00;99784.25;5057070;28;20028;-73
2021/12/16 09:20:00;;;;;;;3.83;2.17;;;;;;;1.56;100.00;99778.03;5072099;28;20101;-73
2021/12/16 09:22:26;;;;;;;4.45;2.22;;;;;;;1.57;100.00;99777.81;5058311;28;20033;-73
2021/12/16 09:24:54;;;;;;;4.15;2.22;;;;;;;1.57;100.00;99774.28;5048377;28;20495;-74
2021/12/16 09:27:19;;;;;;;3.95;2.58;;;;;;;1.58;100.00;99771.34;5038745;28;20047;-73
2021/12/16 09:29:46;;;;;;;8.27;3.28;;;;;;;1.59;100.00;99774.88;5069051;28;20041;-72
2021/12/16 09:32:12;;;;;;;6.35;3.45;;;;;;;1.59;100.00;99775.69;5063302;28;20123;-74
2021/12/16 09:34:39;;;;;;;4.45;2.78;;;;;;;1.60;100.00;99782.72;5055183;28;20187;-74
2021/12/16 09:37:06;;;;;;;4.97;3.25;;;;;;;1.63;100.00;99784.13;5037043;28;20114;-74
2021/12/16 09:39:32;;;;;;;5.72;2.95;;;;;;;1.65;100.00;99784.69;5073390;28;20044;-73
2021/12/16 09:41:58;;;;;;;7.22;3.40;;;;;;;1.68;100.00;99785.03;5062739;28;20132;-72
2021/12/16 09:44:25;;;;;;;7.47;3.67;;;;;;;1.70;100.00;99782.91;5066543;28;20044;-73
2021/12/16 09:46:54;;;;;;;5.55;3.17;;;;;;;1.73;100.00;99784.28;5038186;28;20041;-73
2021/12/16 09:49:20;;;;;;;5.25;2.97;;;;;;;1.72;100.00;99774.53;5058050;28;20086;-73
2021/12/16 09:51:48;;;;;;;4.68;3.05;;;;;;;1.74;100.00;99780.53;5071896;28;20466;-74
2021/12/16 09:54:16;;;;;;;5.78;3.33;;;;;;;1.77;100.00;99777.34;5072641;28;20585;-72
2021/12/16 09:56:44;;;;;;;5.38;2.45;;;;;;;1.78;100.00;99770.88;5072792;28;20041;-74
2021/12/16 09:59:13;;;;;;;6.07;2.72;;;;;;;1.78;100.00;99762.75;5051740;28;20037;-74
2021/12/16 10:01:40;;;;;;;6.07;2.97;;;;;;;1.79;100.00;99769.81;5052516;28;20123;-74
2021/12/16 10:04:08;;;;;;;4.38;2.50;;;;;;;1.79;100.00;99761.69;5061982;28;20048;-74
2021/12/16 10:06:36;;;;;;;6.68;2.63;;;;;;;1.82;100.00;99774.72;5054833;28;20212;-73
2021/12/16 10:09:04;;;;;;;3.97;2.10;;;;;;;1.85;100.00;99758.00;5069773;28;20032;-74
2021/12/16 10:11:31;;;;;;;7.15;2.25;;;;;;;1.87;100.00;99761.28;5051365;28;20524;-75
2021/12/16 10:19:12;;;;;;;3.17;2.00;;;;;;;1.90;100.00;99763.47;5068583;28;20060;-75
2021/12/16 10:21:41;;;;;;;3.47;2.08;;;;;;;1.92;100.00;99763.25;4999449;28;20068;-74
2021/12/16 10:24:20;;;;;;;;;;;;;;;1.93;100.00;99775.72;5031270;28;20041;-74
2021/12/16 10:26:45;;;;;;;3.65;1.88;;;;;;;1.92;100.00;99780.31;5032162;28;19971;-75
2021/12/16 10:29:11;;;;;;;3.50;2.05;;;;;;;1.92;100.00;99791.13;5038909;28;20024;-76
2021/12/16 10:31:37;;;;;;;7.45;1.77;;;;;;;1.93;100.00;99784.66;5072055;28;20040;-76
2021/12/16 10:34:05;;;;;;;2.75;1.73;;;;;;;1.93;100.00;99787.38;5070508;28;20040;-75
2021/12/16 10:36:37;;;;;;;5.82;2.20;;;;;;;1.93;100.00;99783.84;5070667;28;20063;-75
2021/12/16 10:39:07;;;;;;;4.05;1.92;;;;;;;1.92;100.00;99784.91;5045445;28;20040;-74
2021/12/16 10:41:41;;;;;;;3.10;1.83;;;;;;;1.88;100.00;99789.97;5046692;28;20033;-75
2021/12/16 10:44:20;;;;;;;3.65;1.92;;;;;;;1.88;100.00;99798.06;5043966;28;20037;-75
2021/12/16 10:47:00;;;;;;;3.22;1.70;;;;;;;1.87;100.00;99793.72;5048132;28;20041;-74
2021/12/16 10:49:49;;;;;;;3.95;1.63;;;;;;;1.87;100.00;99793.72;5033935;28;20404;-75
2021/12/16 10:52:16;;;;;;;;;;;;;;;1.87;100.00;99793.72;5051668;28;20132;-77
2021/12/16 10:54:47;;;;;;;3.63;1.63;;;;;;;1.88;100.00;99792.66;5049413;28;19920;-76
2021/12/16 10:57:16;;;;;;;2.22;1.52;;;;;;;1.86;100.00;99797.50;5029878;28;20055;-76
2021/12/16 10:59:45;;;;;;;1.80;1.42;;;;;;;1.87;100.00;99798.31;5052829;28;20037;-76
2021/12/16 11:02:22;;;;;;;2.28;1.80;;;;;;;1.88;100.00;99797.25;5035547;28;20499;-75
2021/12/16 11:04:54;;;;;;;2.78;1.70;;;;;;;1.89;100.00;99799.72;5043596;28;20048;-76
2021/12/16 11:07:34;;;;;;;2.55;1.92;;;;;;;1.89;100.00;99796.19;5032566;28;20038;-75
2021/12/16 11:10:05;;;;;;;;;;;;;;;1.90;100.00;99803.25;5051732;28;20031;-75
2021/12/16 11:12:34;;;;;;;2.80;1.70;;;;;;;1.89;100.00;99805.13;5045621;28;20059;-75
2021/12/16 11:15:09;;;;;;;2.15;1.67;;;;;;;1.90;100.00;99798.66;5068681;28;20097;-75
2021/12/16 11:17:51;;;;;;;2.10;1.75;;;;;;;1.92;100.00;99791.13;5061659;28;20507;-75
2021/12/16 11:20:22;;;;;;;3.50;2.05;;;;;;;1.92;100.00;99796.53;5030276;28;20037;-74
2021/12/16 11:22:52;;;;;;;2.80;1.98;;;;;;;1.93;100.00;99787.38;5031208;28;20045;-74
2021/12/16 11:25:27;;;;;;;4.10;2.45;;;;;;;1.94;100.00;99789.00;5065895;28;20041;-74
2021/12/16 11:28:13;;;;;;;4.80;2.08;;;;;;;1.94;100.00;99790.88;5052241;28;20166;-74
2021/12/16 11:30:48;;;;;;;3.05;2.13;;;;;;;1.96;100.00;99797.69;5060165;28;20128;-74
2021/12/16 11:33:18;;;;;;;5.18;2.35;;;;;;;1.95;100.00;99796.06;5044888;28;20446;-73
2021/12/16 11:36:04;;;;;;;4.80;2.20;;;;;;;1.95;100.00;99797.94;5061615;28;20127;-74
2021/12/16 11:38:43;;;;;;;2.05;1.80;;;;;;;1.96;100.00;99796.88;5043286;28;20044;-74
2021/12/16 11:41:21;;;;;;;4.03;2.50;;;;;;;1.95;100.00;99801.47;5040954;28;20082;-76
2021/12/16 11:44:33;;;;;;;5.80;2.70;;;;;;;1.93;100.00;99805.47;5052412;28;20040;-76
2021/12/16 11:47:03;;;;;;;5.70;2.45;;;;;;;1.89;100.00;99810.53;5034601;28;20091;-75
2021/12/16 11:49:45;;;;;;;3.22;2.42;;;;;;;1.86;100.00;99808.31;5064954;28;20040;-75
2021/12/16 11:52:32;;;;;;;3.47;2.05;;;;;;;1.81;100.00;99821.78;5061019;28;20550;-75
2021/12/16 11:55:13;;;;;;;4.47;2.65;;;;;;;1.79;100.00;99813.09;5051691;28;20048;-75
2021/12/16 11:57:47;;;;;;;5.80;2.55;;;;;;;1.76;100.00;99810.88;5061706;28;20035;-75
2021/12/16 12:00:24;;;;;;;5.47;2.58;;;;;;;1.75;100.00;99811.94;5024298;28;20040;-75
2021/12/16 12:02:55;;;;;;;4.43;2.78;;;;;;;1.74;100.00;99807.59;5064066;28;20043;-76
2021/12/16 12:05:22;;;;;;;4.90;2.45;;;;;;;1.71;100.00;99822.41;5054011;28;20033;-75
2021/12/16 12:07:54;;;;;;;3.53;2.33;;;;;;;1.66;100.00;99816.09;5051776;28;20029;-75
2021/12/16 12:10:41;;;;;;;5.53;2.92;;;;;;;1.59;100.00;99823.53;5060031;28;20043;-75
2021/12/16 12:13:11;;;;;;;4.55;2.15;;;;;;;1.51;100.00;99825.56;5054413;28;20109;-75
2021/12/16 12:15:51;;;;;;;2.67;1.88;;;;;;;1.46;100.00;99830.06;5066231;28;20040;-75
2021/12/16 12:19:00;;;;;;;1.95;1.52;;;;;;;1.40;100.00;99829.13;5061861;28;20036;-74
2021/12/16 12:21:28;;;;;;;5.03;2.08;;;;;;;1.35;100.00;99839.84;5053547;28;20430;-75
2021/12/16 12:24:08;;;;;;;5.23;1.93;;;;;;;1.22;100.00;99845.53;5046212;28;20037;-74
2021/12/16 12:26:38;;;;;;;3.47;1.67;;;;;;;1.07;100.00;99850.63;5042543;28;20086;-75
2021/12/16 12:29:21;;;;;;;2.03;1.50;;;;;;;0.93;100.00;99847.34;5045286;28;20060;-76
2021/12/16 12:31:51;;;;;;;2.03;1.48;;;;;;;0.79;100.00;99846.78;5044738;28;20033;-75
2021/12/16 12:34:17;;;;;;;2.15;1.20;;;;;;;0.68;100.00;99849.47;5035056;28;20049;-76
2021/12/16 12:36:45;;;;;;;2.67;1.85;;;;;;;0.54;100.00;99852.44;5066144;28;20041;-76
2021/12/16 12:39:17;;;;;;;2.70;1.55;;;;;;;0.39;100.00;99843.16;5023677;28;20032;-75
2021/12/16 12:41:44;;;;;;;4.18;2.17;;;;;;;0.25;100.00;99862.28;5043290;28;20124;-75
2021/12/16 12:44:10;;;;;;;1.75;1.20;;;;;;;0.16;100.00;99858.25;5041310;28;20045;-74
2021/12/16 12:46:38;;;;;;;2.95;1.55;;;;;;;0.12;100.00;99861.66;5039289;28;20038;-74
2021/12/16 12:49:07;;;;;;;2.08;1.70;;;;;;;0.01;100.00;99871.38;5005864;28;20128;-77
2021/12/16 12:51:39;;;;;;;1.60;1.15;;;;;;;-0.12;100.00;99871.56;5037129;28;20769;-73
2021/12/16 12:54:26;;;;;;;2.20;1.40;;;;;;;-0.18;100.00;99864.38;5043537;28;20041;-74
2021/12/16 12:56:54;;;;;;;2.38;1.30;;;;;;;-0.35;100.00;99867.75;5040376;28;20385;-76
2021/12/16 12:59:20;;;;;;;3.08;1.98;;;;;;;-0.35;100.00;99878.53;5045514;28;20112;-77
2021/12/16 13:01:53;;;;;;;3.17;1.77;;;;;;;-0.40;100.00;99877.56;5041502;28;20652;-75
2021/12/16 13:04:32;;;;;;;2.13;1.50;;;;;;;-0.44;100.00;99874.50;5036793;28;20033;-76
2021/12/16 13:07:05;;;;;;;3.10;1.65;;;;;;;-0.46;100.00;99876.59;5053166;28;20038;-77
2021/12/16 13:09:47;;;;;;;2.78;1.52;;;;;;;-0.50;100.00;99870.03;5055753;28;20039;-83
2021/12/16 13:12:44;;;;;;;2.80;1.67;;;;;;;-0.53;100.00;99872.34;5030929;28;20111;-83
2021/12/16 13:27:21;;;;;;;2.50;1.48;;;;;;;-0.56;100.00;99887.09;5032955;28;20033;-83
2021/12/16 13:32:33;;;;;;;2.85;1.77;;;;;;;-0.55;100.00;99894.13;5045199;28;20032;-82
2021/12/16 13:35:21;;;;;;;2.92;2.03;;;;;;;-0.53;100.00;99892.03;5025079;28;20132;-82
2021/12/16 13:37:51;;;;;;;3.95;1.92;;;;;;;-0.52;100.00;99898.22;5039845;28;20037;-81
2021/12/16 13:40:28;;;;;;;1.98;1.20;;;;;;;-0.54;100.00;99890.38;5030336;28;20542;-83
2021/12/16 13:42:59;;;;;;;2.85;1.33;;;;;;;-0.55;100.00;99891.44;5040721;28;20041;-76
2021/12/16 13:45:32;;;;;;;2.47;1.45;;;;;;;-0.55;100.00;99904.91;5059437;28;20068;-76
2021/12/16 14:10:19;;;;;;;2.38;1.33;;;;;;;-0.58;100.00;99935.00;5037611;28;20068;-78
2021/12/16 14:26:52;;;;;;;1.40;1.10;;;;;;;-0.49;100.00;99936.34;5039255;28;20037;-79
2021/12/16 14:34:58;;;;;;;1.38;1.05;;;;;;;-0.43;100.00;99938.13;5035725;28;20064;-80
2021/12/16 14:37:32;;;;;;;2.70;1.90;;;;;;;-0.42;100.00;99938.97;5037153;28;20072;-78
2021/12/16 14:40:16;;;;;;;2.30;1.83;;;;;;;-0.43;100.00;99940.84;5035990;28;20564;-78
2021/12/16 14:45:44;;;;;;;1.90;1.33;;;;;;;-0.36;100.00;99951.50;5021470;28;20128;-78
2021/12/16 14:50:52;;;;;;;2.28;1.20;;;;;;;-0.29;100.00;99943.38;5016828;28;20091;-78
2021/12/16 14:53:41;;;;;;;1.67;1.27;;;;;;;-0.27;100.00;99939.38;5036692;28;20506;-80
2021/12/16 14:56:21;;;;;;;3.35;1.33;;;;;;;-0.24;100.00;99948.88;5033241;28;20072;-79
2021/12/16 14:58:50;;;;;;;4.15;1.23;;;;;;;-0.21;100.00;99943.03;5036673;28;20116;-78
2021/12/16 15:01:25;;;;;;;2.30;1.33;;;;;;;-0.18;100.00;99942.56;5034243;28;20037;-79
2021/12/16 15:03:52;;;;;;;1.23;1.13;;;;;;;-0.17;100.00;99942.38;5033675;28;20484;-78
2021/12/16 15:06:25;;;;;;;2.22;1.30;;;;;;;-0.15;100.00;99944.84;5038627;28;20565;-80
2021/12/16 15:09:20;;;;;;;2.10;1.35;;;;;;;-0.16;100.00;99948.59;5036665;28;20124;-80
2021/12/16 15:12:02;;;;;;;1.60;1.30;;;;;;;-0.15;100.00;99942.16;5035463;28;20056;-80
2021/12/16 15:17:16;;;;;;;2.35;1.50;;;;;;;-0.09;100.00;99935.81;5033900;28;20122;-79
2021/12/16 15:39:22;;;;;;;2.08;1.63;;;;;;;0.01;100.00;99938.00;5039140;28;20046;-80
2021/12/16 15:44:56;;;;;;;3.35;2.05;;;;;;;0.07;100.00;99945.97;5034815;28;20044;-79
2021/12/16 15:47:22;;;;;;;2.63;2.38;;;;;;;0.08;100.00;99947.63;5032545;28;20044;-80
2021/12/16 15:49:48;;;;;;;3.53;2.35;;;;;;;0.10;100.00;99952.78;5036005;28;20687;-79
2021/12/16 15:52:15;;;;;;;2.63;2.20;;;;;;;0.12;100.00;99953.38;5038790;28;20033;-79